Keiho Maru — JJ4010 — position and weather

sailwx.info

Track history (hours):
 
Tides and Currents Weather Stations Pressure Air Temp Water Temp Dewpoint Dewpoint Depression Visibility Wind Speed Wind Dir Waves Ship Positions

Keiho Maru

Last reported at 2017-Oct-16 05:23 UTC. Time now 2017-Oct-17 20:30 UTC.
Position N 34°41' E 135°12'.

Length 38 m; draft 3.6 m.

Type: Tug. MMSI: 431401501.

Date/timePositionNaut miles runAvg speedWind from/ knotsBaromVisibWave heightAir tempDewpointWater temp
2017-Oct-16 05:23N 34°41' E 135°12'2 4.1
2017-Oct-16 05:00N 34°41' E 135°14'612.2
2017-Oct-16 04:30N 34°40' E 135°21'5 6.1
2017-Oct-16 03:45N 34°38' E 135°27'1 3.5
2017-Oct-16 03:29N 34°39' E 135°26'2 4.4
2017-Oct-16 03:00N 34°38' E 135°23'5 9.0
2017-Oct-16 02:29N 34°40' E 135°18'4 8.8
2017-Oct-16 02:00N 34°41' E 135°13'1 1.8
2017-Oct-16 01:30N 34°41' E 135°12'0 0.0
2017-Oct-16 01:00N 34°41' E 135°12'0 0.0
2017-Oct-16 00:30N 34°41' E 135°12'0 0.0
2017-Oct-16 00:00N 34°41' E 135°12'0 0.0
2017-Oct-15 23:30N 34°41' E 135°12'0 0.0
2017-Oct-15 23:00N 34°41' E 135°12'  
2017-Oct-13 00:13N 34°41' E 135°12'0 0.0
2017-Oct-12 23:59N 34°41' E 135°12'0 0.0
2017-Oct-12 23:30N 34°41' E 135°12'0 0.0
2017-Oct-12 23:00N 34°41' E 135°12'0 0.0
2017-Oct-12 22:30N 34°41' E 135°12'0 0.0
2017-Oct-12 22:00N 34°41' E 135°12'0 0.0
2017-Oct-12 02:05N 34°41' E 135°12'4 0.1
2017-Oct-11 00:00N 34°41' E 135°17'0 0.0
2017-Oct-10 23:30N 34°41' E 135°17'0 0.0
2017-Oct-10 23:00N 34°41' E 135°17'0 0.0
2017-Oct-10 22:30N 34°41' E 135°17'0 0.0
2017-Oct-10 22:00N 34°41' E 135°17'0 0.0
2017-Oct-10 21:30N 34°41' E 135°17'2 4.2
2017-Oct-10 21:00N 34°40' E 135°14'1 2.8
2017-Oct-10 20:30N 34°41' E 135°13'1 1.9
2017-Oct-10 20:00N 34°41' E 135°12'  
2017-Oct-08 12:03N 34°41' E 135°12'0 0.1
2017-Oct-08 12:00N 34°41' E 135°12'1 2.6
2017-Oct-08 11:30N 34°40' E 135°11'1 1.9
2017-Oct-08 11:00N 34°39' E 135°12'2 3.3
2017-Oct-08 10:30N 34°41' E 135°12'0 0.0
2017-Oct-08 10:00N 34°41' E 135°12'0 0.0
2017-Oct-08 09:30N 34°41' E 135°12'0 0.0
2017-Oct-08 09:00N 34°41' E 135°12'0 0.0
2017-Oct-08 08:30N 34°41' E 135°12'0 0.0
2017-Oct-08 08:00N 34°41' E 135°12'0 0.3
2017-Oct-08 07:30N 34°41' E 135°12'2 4.1
2017-Oct-08 07:00N 34°42' E 135°14'2 4.3
2017-Oct-08 06:30N 34°41' E 135°12'0 0.0
2017-Oct-08 06:00N 34°41' E 135°12'0 0.0
2017-Oct-08 05:30N 34°41' E 135°12'0 0.0
2017-Oct-08 05:00N 34°41' E 135°12'0 0.0
2017-Oct-08 04:30N 34°41' E 135°12'0 0.0
2017-Oct-08 04:00N 34°41' E 135°12'0 0.0
2017-Oct-08 03:30N 34°41' E 135°12'0 0.0
2017-Oct-08 03:00N 34°41' E 135°12'0 0.0
2017-Oct-08 02:30N 34°41' E 135°12'0 0.0
2017-Oct-08 02:00N 34°41' E 135°12'0 0.0
2017-Oct-08 01:30N 34°41' E 135°12'0 0.0
2017-Oct-08 01:00N 34°41' E 135°12'0 0.0
2017-Oct-08 00:30N 34°41' E 135°12'0 0.0
2017-Oct-08 00:00N 34°41' E 135°12'0 0.0
2017-Oct-07 23:30N 34°41' E 135°12'0 0.0
2017-Oct-07 23:00N 34°41' E 135°12'1 2.2
2017-Oct-07 22:30N 34°40' E 135°13'1 2.8
2017-Oct-07 22:00N 34°40' E 135°15'1 2.2
2017-Oct-07 21:30N 34°41' E 135°14'1 2.9
2017-Oct-07 21:00N 34°41' E 135°12'0 0.0
2017-Oct-07 08:15N 34°41' E 135°12'1 2.5
2017-Oct-07 08:00N 34°41' E 135°13'2 3.7
2017-Oct-07 07:31N 34°40' E 135°14'2 3.8
2017-Oct-07 07:00N 34°39' E 135°16'0 0.7
2017-Oct-07 06:30N 34°39' E 135°16'3 6.8
2017-Oct-07 06:00N 34°41' E 135°12'0 0.0
2017-Oct-07 05:30N 34°41' E 135°12'0 0.0
2017-Oct-07 05:00N 34°41' E 135°12'0 0.0
2017-Oct-07 04:30N 34°41' E 135°12'0 0.0
2017-Oct-07 04:00N 34°41' E 135°12'0 0.0
2017-Oct-07 03:30N 34°41' E 135°12'0 0.0
2017-Oct-07 03:00N 34°41' E 135°12'0 0.0
2017-Oct-07 02:30N 34°41' E 135°12'0 0.0
2017-Oct-07 02:00N 34°41' E 135°12'0 0.0
2017-Oct-07 01:30N 34°41' E 135°12'0 0.0
2017-Oct-07 01:00N 34°41' E 135°12'0 0.0
2017-Oct-07 00:30N 34°41' E 135°12'0 0.0
2017-Oct-07 00:00N 34°41' E 135°12'0 0.0
2017-Oct-06 23:30N 34°41' E 135°12'1 2.8
2017-Oct-06 23:00N 34°41' E 135°14'3 5.1
2017-Oct-06 22:30N 34°42' E 135°17'1 1.1
2017-Oct-06 22:00N 34°42' E 135°17'2 3.6
2017-Oct-06 21:30N 34°40' E 135°16'3 6.5
2017-Oct-06 21:00N 34°41' E 135°12'0 0.0
2017-Oct-06 12:45N 34°41' E 135°12'1 3.9
2017-Oct-06 12:30N 34°41' E 135°13'2 4.5
2017-Oct-06 12:00N 34°41' E 135°16'1 1.5
2017-Oct-06 11:30N 34°40' E 135°15'2 4.4
2017-Oct-06 11:00N 34°41' E 135°13'1 1.9
2017-Oct-06 10:30N 34°41' E 135°12'0 0.0
2017-Oct-06 10:01N 34°41' E 135°12'0 0.0
2017-Oct-06 09:31N 34°41' E 135°12'0 0.0
2017-Oct-06 09:00N 34°41' E 135°12'0 0.0
2017-Oct-06 08:31N 34°41' E 135°12'0 0.0
2017-Oct-06 08:01N 34°41' E 135°12'0 0.0
2017-Oct-06 07:30N 34°41' E 135°12'2 4.4
2017-Oct-06 07:00N 34°40' E 135°15'0 0.4
2017-Oct-06 06:30N 34°39' E 135°15'0 0.4
2017-Oct-06 06:00N 34°40' E 135°15'2 4.4
2017-Oct-06 05:30N 34°41' E 135°12'  
Track history (hours):
 
Tides and Currents Weather Stations Pressure Air Temp Water Temp Dewpoint Dewpoint Depression Visibility Wind Speed Wind Dir Waves Ship Positions

Keiho Maru

Last reported at 2017-Oct-16 05:23 UTC. Time now 2017-Oct-17 20:30 UTC.
Position N 34°41' E 135°12'.

Length 38 m; draft 3.6 m.

Type: Tug. MMSI: 431401501.

Date/timePositionNaut miles runAvg speedWind from/ knotsBaromVisibWave heightAir tempDewpointWater temp
2017-Oct-16 05:23N 34°41' E 135°12'2 4.1
2017-Oct-16 05:00N 34°41' E 135°14'612.2
2017-Oct-16 04:30N 34°40' E 135°21'5 6.1
2017-Oct-16 03:45N 34°38' E 135°27'1 3.5
2017-Oct-16 03:29N 34°39' E 135°26'2 4.4
2017-Oct-16 03:00N 34°38' E 135°23'5 9.0
2017-Oct-16 02:29N 34°40' E 135°18'4 8.8
2017-Oct-16 02:00N 34°41' E 135°13'1 1.8
2017-Oct-16 01:30N 34°41' E 135°12'0 0.0
2017-Oct-16 01:00N 34°41' E 135°12'0 0.0
2017-Oct-16 00:30N 34°41' E 135°12'0 0.0
2017-Oct-16 00:00N 34°41' E 135°12'0 0.0
2017-Oct-15 23:30N 34°41' E 135°12'0 0.0
2017-Oct-15 23:00N 34°41' E 135°12'  
2017-Oct-13 00:13N 34°41' E 135°12'0 0.0
2017-Oct-12 23:59N 34°41' E 135°12'0 0.0
2017-Oct-12 23:30N 34°41' E 135°12'0 0.0
2017-Oct-12 23:00N 34°41' E 135°12'0 0.0
2017-Oct-12 22:30N 34°41' E 135°12'0 0.0
2017-Oct-12 22:00N 34°41' E 135°12'0 0.0
2017-Oct-12 02:05N 34°41' E 135°12'4 0.1
2017-Oct-11 00:00N 34°41' E 135°17'0 0.0
2017-Oct-10 23:30N 34°41' E 135°17'0 0.0
2017-Oct-10 23:00N 34°41' E 135°17'0 0.0
2017-Oct-10 22:30N 34°41' E 135°17'0 0.0
2017-Oct-10 22:00N 34°41' E 135°17'0 0.0
2017-Oct-10 21:30N 34°41' E 135°17'2 4.2
2017-Oct-10 21:00N 34°40' E 135°14'1 2.8
2017-Oct-10 20:30N 34°41' E 135°13'1 1.9
2017-Oct-10 20:00N 34°41' E 135°12'  
2017-Oct-08 12:03N 34°41' E 135°12'0 0.1
2017-Oct-08 12:00N 34°41' E 135°12'1 2.6
2017-Oct-08 11:30N 34°40' E 135°11'1 1.9
2017-Oct-08 11:00N 34°39' E 135°12'2 3.3
2017-Oct-08 10:30N 34°41' E 135°12'0 0.0
2017-Oct-08 10:00N 34°41' E 135°12'0 0.0
2017-Oct-08 09:30N 34°41' E 135°12'0 0.0
2017-Oct-08 09:00N 34°41' E 135°12'0 0.0
2017-Oct-08 08:30N 34°41' E 135°12'0 0.0
2017-Oct-08 08:00N 34°41' E 135°12'0 0.3
2017-Oct-08 07:30N 34°41' E 135°12'2 4.1
2017-Oct-08 07:00N 34°42' E 135°14'2 4.3
2017-Oct-08 06:30N 34°41' E 135°12'0 0.0
2017-Oct-08 06:00N 34°41' E 135°12'0 0.0
2017-Oct-08 05:30N 34°41' E 135°12'0 0.0
2017-Oct-08 05:00N 34°41' E 135°12'0 0.0
2017-Oct-08 04:30N 34°41' E 135°12'0 0.0
2017-Oct-08 04:00N 34°41' E 135°12'0 0.0
2017-Oct-08 03:30N 34°41' E 135°12'0 0.0
2017-Oct-08 03:00N 34°41' E 135°12'0 0.0
2017-Oct-08 02:30N 34°41' E 135°12'0 0.0
2017-Oct-08 02:00N 34°41' E 135°12'0 0.0
2017-Oct-08 01:30N 34°41' E 135°12'0 0.0
2017-Oct-08 01:00N 34°41' E 135°12'0 0.0
2017-Oct-08 00:30N 34°41' E 135°12'0 0.0
2017-Oct-08 00:00N 34°41' E 135°12'0 0.0
2017-Oct-07 23:30N 34°41' E 135°12'0 0.0
2017-Oct-07 23:00N 34°41' E 135°12'1 2.2
2017-Oct-07 22:30N 34°40' E 135°13'1 2.8
2017-Oct-07 22:00N 34°40' E 135°15'1 2.2
2017-Oct-07 21:30N 34°41' E 135°14'1 2.9
2017-Oct-07 21:00N 34°41' E 135°12'0 0.0
2017-Oct-07 08:15N 34°41' E 135°12'1 2.5
2017-Oct-07 08:00N 34°41' E 135°13'2 3.7
2017-Oct-07 07:31N 34°40' E 135°14'2 3.8
2017-Oct-07 07:00N 34°39' E 135°16'0 0.7
2017-Oct-07 06:30N 34°39' E 135°16'3 6.8
2017-Oct-07 06:00N 34°41' E 135°12'0 0.0
2017-Oct-07 05:30N 34°41' E 135°12'0 0.0
2017-Oct-07 05:00N 34°41' E 135°12'0 0.0
2017-Oct-07 04:30N 34°41' E 135°12'0 0.0
2017-Oct-07 04:00N 34°41' E 135°12'0 0.0
2017-Oct-07 03:30N 34°41' E 135°12'0 0.0
2017-Oct-07 03:00N 34°41' E 135°12'0 0.0
2017-Oct-07 02:30N 34°41' E 135°12'0 0.0
2017-Oct-07 02:00N 34°41' E 135°12'0 0.0
2017-Oct-07 01:30N 34°41' E 135°12'0 0.0
2017-Oct-07 01:00N 34°41' E 135°12'0 0.0
2017-Oct-07 00:30N 34°41' E 135°12'0 0.0
2017-Oct-07 00:00N 34°41' E 135°12'0 0.0
2017-Oct-06 23:30N 34°41' E 135°12'1 2.8
2017-Oct-06 23:00N 34°41' E 135°14'3 5.1
2017-Oct-06 22:30N 34°42' E 135°17'1 1.1
2017-Oct-06 22:00N 34°42' E 135°17'2 3.6
2017-Oct-06 21:30N 34°40' E 135°16'3 6.5
2017-Oct-06 21:00N 34°41' E 135°12'0 0.0
2017-Oct-06 12:45N 34°41' E 135°12'1 3.9
2017-Oct-06 12:30N 34°41' E 135°13'2 4.5
2017-Oct-06 12:00N 34°41' E 135°16'1 1.5
2017-Oct-06 11:30N 34°40' E 135°15'2 4.4
2017-Oct-06 11:00N 34°41' E 135°13'1 1.9
2017-Oct-06 10:30N 34°41' E 135°12'0 0.0
2017-Oct-06 10:01N 34°41' E 135°12'0 0.0
2017-Oct-06 09:31N 34°41' E 135°12'0 0.0
2017-Oct-06 09:00N 34°41' E 135°12'0 0.0
2017-Oct-06 08:31N 34°41' E 135°12'0 0.0
2017-Oct-06 08:01N 34°41' E 135°12'0 0.0
2017-Oct-06 07:30N 34°41' E 135°12'2 4.4
2017-Oct-06 07:00N 34°40' E 135°15'0 0.4
2017-Oct-06 06:30N 34°39' E 135°15'0 0.4
2017-Oct-06 06:00N 34°40' E 135°15'2 4.4
2017-Oct-06 05:30N 34°41' E 135°12'  

Dump ship's entire track history